Airfield :
LOGIN :

Register | Disclaimer

   EN    FR    IT 

 










Legend :    VFR   Marginal VFR   IFR   Intensive IFR   Very Intensive IFR
Visi :
Ceiling :
>= 8 km
>= 3000ft
5 to 8 km
1000 to 3000 ft
1500m to 5 km
500 to 1000 ft
800 to 1500m
200 to 500 ft
< 800m
< 200 ft
Symbols :   Thunderstorms  Fog  Heavy snow  Heavy precipitations  Wind > 20 kt
SIGMETs :     Misc.  Thunderstorms  Icing  Turbulence  Mountain Waves  Volcanic Ashes







- Airport Elevation : 90 ft
- IATA code : NTE
- Download approach charts


LFRS - Nantes

CURRENT METAR :
  • 241330Z AUTO VRB04KT 9999 FEW028 22/15 Q1018 NOSIG

EXPIRED METARs :
  • 241300Z AUTO VRB06KT 9999 FEW028 23/15 Q1018 NOSIG
  • 241230Z AUTO 21004KT 170V270 CAVOK 22/15 Q1018 NOSIG
  • 241200Z AUTO VRB03KT 9999 FEW023 21/14 Q1018 NOSIG
  • 241130Z AUTO 24004KT 190V320 9999 BKN022 BKN130 21/14 Q1018 NOSIG
  • 241100Z AUTO 27004KT 220V350 9999 BKN018 BKN110 OVC130 20/15 Q1018 NOSIG

TAF TAF LFRS
Valid from the 24 at 12:00 until the 25 at 18:00 UTC


241100Z 2412/2518 VRB04KT 9999 BKN020
BECMG 2421/2424 -RA BKN014
TEMPO 2500/2509 4000 RA BKN008
BECMG 2510/2512 33008KT NSW BKN016
ATIS : +33 2 40 05 12 74
No reported NOTAMs for that airfield.



MET'MAP, your aeronautical weather chart ! - Copyright ORBIFLY December 2007 - Disclaimer

ORBIFLY MET'MAP TEAM :

Programming & Development : Alexandra Zaïnal
Concept & Development : Baudouin d'Aumeries
Co-Development & Prog : Marc-Olivier Méhu
Technical & hardware support : Manuel Goepfert

Contact : metmap@orbifly.com




SOURCES & CREDITS :

   NOAA